Time;durP1;ratioP1;P1;durP2;ratioP2;P2;SDS_P1;SDS_P2;PMS_P1;PMS_P2;Temp;Humidity;BMP_temperature;BMP_pressure;BME280_temperature;BME280_humidity;BME280_pressure;Samples;Min_cycle;Max_cycle;Signal;HPM_P1;HPM_P2
2022/04/25 00:01:28;;;;;;;103.82;60.38;;;;;;;;;;7336149;19;154094;-14
2022/04/25 00:04:00;;;;;;;105.30;61.30;;;;;;;;;;7332169;19;153738;-17
2022/04/25 00:06:34;;;;;;;100.40;60.10;;;;;;;;;;7335090;19;161860;-15
2022/04/25 00:09:05;;;;;;;103.63;60.45;;;;;;;;;;7334350;19;162615;-15
2022/04/25 00:11:36;;;;;;;97.80;60.20;;;;;;;;;;7334523;19;154264;-13
2022/04/25 00:14:08;;;;;;;96.07;57.95;;;;;;;;;;7333251;19;153851;-14
2022/04/25 00:16:39;;;;;;;106.47;62.00;;;;;;;;;;7333437;19;161907;-17
2022/04/25 00:19:11;;;;;;;100.20;60.83;;;;;;;;;;7335088;19;162540;-16
2022/04/25 00:21:45;;;;;;;98.72;58.80;;;;;;;;;;7336313;19;153878;-16
2022/04/25 00:24:16;;;;;;;99.80;60.42;;;;;;;;;;7333387;19;153622;-17
2022/04/25 00:26:47;;;;;;;91.80;54.95;;;;;;;;;;7331872;19;161999;-16
2022/04/25 00:29:18;;;;;;;91.03;55.90;;;;;;;;;;7332997;19;162451;-14
2022/04/25 00:31:50;;;;;;;95.93;57.70;;;;;;;;;;7332400;19;153972;-16
2022/04/25 00:34:21;;;;;;;87.18;49.78;;;;;;;;;;7333139;19;154351;-15
2022/04/25 00:36:54;;;;;;;92.75;54.03;;;;;;;;;;7333362;19;161627;-17
2022/04/25 00:39:26;;;;;;;96.05;54.30;;;;;;;;;;7334880;19;162439;-17
2022/04/25 00:41:59;;;;;;;93.97;53.38;;;;;;;;;;7330478;19;154024;-18
2022/04/25 00:44:30;;;;;;;88.40;53.45;;;;;;;;;;7335059;19;154371;-15
2022/04/25 00:47:02;;;;;;;92.13;54.55;;;;;;;;;;7332528;19;161776;-17
2022/04/25 00:49:34;;;;;;;97.00;54.00;;;;;;;;;;7332296;19;162159;-17
2022/04/25 00:52:08;;;;;;;81.65;51.30;;;;;;;;;;7334377;19;154014;-14
2022/04/25 00:54:41;;;;;;;89.85;53.90;;;;;;;;;;7331720;19;154069;-18
2022/04/25 00:57:12;;;;;;;;;;;;;;;;;;7332866;19;161931;-14
2022/04/25 00:59:43;;;;;;;83.80;52.38;;;;;;;;;;7334690;19;162408;-15
2022/04/25 01:02:14;;;;;;;83.13;49.10;;;;;;;;;;7335137;19;154182;-16
2022/04/25 01:04:46;;;;;;;83.40;48.67;;;;;;;;;;7331740;19;153604;-16
2022/04/25 01:07:19;;;;;;;85.38;50.80;;;;;;;;;;7333862;19;161762;-15
2022/04/25 01:09:51;;;;;;;82.45;49.40;;;;;;;;;;7334706;19;162914;-15
2022/04/25 01:12:22;;;;;;;64.80;39.35;;;;;;;;;;7334400;19;154120;-16
2022/04/25 01:15:00;;;;;;;52.33;35.47;;;;;;;;;;7326447;19;153916;-16
2022/04/25 01:17:31;;;;;;;49.83;32.42;;;;;;;;;;7329220;19;161806;-16
2022/04/25 01:20:03;;;;;;;56.00;33.47;;;;;;;;;;7330200;19;162466;-16
2022/04/25 01:22:43;;;;;;;59.90;37.13;;;;;;;;;;7327375;19;153995;-18
2022/04/25 01:28:03;;;;;;;55.70;35.00;;;;;;;;;;7327910;19;161711;-16
2022/04/25 01:30:34;;;;;;;58.47;35.13;;;;;;;;;;7329524;19;162658;-18
2022/04/25 01:33:06;;;;;;;56.92;35.83;;;;;;;;;;7333269;19;154358;-15
2022/04/25 01:35:37;;;;;;;53.40;34.63;;;;;;;;;;7330292;19;153612;-17
2022/04/25 01:38:08;;;;;;;57.08;35.10;;;;;;;;;;7328429;19;161965;-14
2022/04/25 01:40:42;;;;;;;58.08;34.60;;;;;;;;;;7329658;19;162497;-15
2022/04/25 01:43:13;;;;;;;54.88;33.67;;;;;;;;;;7328749;19;154179;-17
2022/04/25 01:45:44;;;;;;;52.67;33.30;;;;;;;;;;7330012;19;153720;-18
2022/04/25 01:48:16;;;;;;;50.50;31.83;;;;;;;;;;7328292;19;161799;-18
2022/04/25 01:50:49;;;;;;;52.20;32.13;;;;;;;;;;7330075;19;162913;-13
2022/04/25 01:53:20;;;;;;;48.67;31.00;;;;;;;;;;7331600;19;154087;-17
2022/04/25 01:55:54;;;;;;;51.63;31.80;;;;;;;;;;7332423;19;153295;-15
2022/04/25 01:58:26;;;;;;;51.85;31.75;;;;;;;;;;7330964;19;161938;-13
2022/04/25 02:00:57;;;;;;;50.28;30.27;;;;;;;;;;7332167;19;162810;-15
2022/04/25 02:03:28;;;;;;;45.33;30.67;;;;;;;;;;7332045;19;154071;-15
2022/04/25 02:05:59;;;;;;;50.17;31.55;;;;;;;;;;7332805;19;153810;-14
2022/04/25 02:08:31;;;;;;;47.58;30.23;;;;;;;;;;7337368;19;161632;-16
2022/04/25 02:13:50;;;;;;;52.22;31.23;;;;;;;;;;7339681;19;154324;-15
2022/04/25 02:16:21;;;;;;;50.42;30.40;;;;;;;;;;7337741;19;153987;-14
2022/04/25 02:18:53;;;;;;;47.17;29.88;;;;;;;;;;7337434;19;162258;-17
2022/04/25 02:21:24;;;;;;;47.00;31.08;;;;;;;;;;7337818;19;162709;-16
2022/04/25 02:23:56;;;;;;;43.75;28.40;;;;;;;;;;7337594;19;154036;-14
2022/04/25 02:26:30;;;;;;;47.30;29.95;;;;;;;;;;7339072;19;153387;-15
2022/04/25 02:29:01;;;;;;;50.63;29.88;;;;;;;;;;7338271;19;161783;-17
2022/04/25 02:31:32;;;;;;;44.25;27.63;;;;;;;;;;7337950;19;162323;-15
2022/04/25 02:34:03;;;;;;;43.65;27.65;;;;;;;;;;7339269;19;154125;-17
2022/04/25 02:36:35;;;;;;;45.58;27.70;;;;;;;;;;7337318;19;153877;-13
2022/04/25 02:39:06;;;;;;;39.75;26.35;;;;;;;;;;7337179;19;161971;-14
2022/04/25 02:41:40;;;;;;;42.58;27.83;;;;;;;;;;7338018;19;162135;-16
2022/04/25 02:44:11;;;;;;;45.53;27.35;;;;;;;;;;7338088;19;154202;-14
2022/04/25 02:46:42;;;;;;;40.45;26.60;;;;;;;;;;7338370;19;153554;-16
2022/04/25 02:49:14;;;;;;;41.83;27.13;;;;;;;;;;7334949;19;162113;-17
2022/04/25 02:51:45;;;;;;;42.97;26.52;;;;;;;;;;7337764;19;162127;-16
2022/04/25 02:54:17;;;;;;;39.80;26.10;;;;;;;;;;7338001;19;153915;-16
2022/04/25 02:56:50;;;;;;;44.00;26.75;;;;;;;;;;7334832;19;153538;-15
2022/04/25 02:59:22;;;;;;;43.00;26.92;;;;;;;;;;7332951;19;161849;-14
2022/04/25 03:01:53;;;;;;;41.30;27.83;;;;;;;;;;7334081;19;162331;-18
2022/04/25 03:04:24;;;;;;;40.92;26.90;;;;;;;;;;7334550;19;154308;-14
2022/04/25 03:06:56;;;;;;;40.80;25.23;;;;;;;;;;7334620;19;153485;-14
2022/04/25 03:09:27;;;;;;;40.28;25.55;;;;;;;;;;7334690;19;162036;-16
2022/04/25 03:12:01;;;;;;;38.85;25.77;;;;;;;;;;7333720;19;162449;-14
2022/04/25 03:14:33;;;;;;;40.95;25.42;;;;;;;;;;7332975;19;154241;-14
2022/04/25 03:17:05;;;;;;;39.40;24.73;;;;;;;;;;7334031;19;153784;-16
2022/04/25 03:19:36;;;;;;;39.20;25.17;;;;;;;;;;7331496;19;161878;-17
2022/04/25 03:22:07;;;;;;;34.83;23.55;;;;;;;;;;7333729;19;162364;-16
2022/04/25 03:24:41;;;;;;;38.00;25.23;;;;;;;;;;7333958;19;154000;-15
2022/04/25 03:27:15;;;;;;;37.88;24.30;;;;;;;;;;7333720;19;153629;-15
2022/04/25 03:29:46;;;;;;;36.85;24.45;;;;;;;;;;7333908;19;162054;-15
2022/04/25 03:32:18;;;;;;;34.78;22.67;;;;;;;;;;7333474;19;162628;-14
2022/04/25 03:34:49;;;;;;;36.63;23.20;;;;;;;;;;7332483;19;154175;-15
2022/04/25 03:37:20;;;;;;;34.80;23.90;;;;;;;;;;7333607;19;153733;-17
2022/04/25 03:39:52;;;;;;;38.30;21.73;;;;;;;;;;7330547;19;161848;-14
2022/04/25 03:42:25;;;;;;;33.60;22.63;;;;;;;;;;7332803;19;162102;-16
2022/04/25 03:44:57;;;;;;;35.42;23.10;;;;;;;;;;7333351;19;153761;-15
2022/04/25 03:47:28;;;;;;;34.15;23.15;;;;;;;;;;7332906;19;153652;-13
2022/04/25 03:50:00;;;;;;;38.47;23.05;;;;;;;;;;7332620;19;162236;-17
2022/04/25 03:52:31;;;;;;;33.92;21.83;;;;;;;;;;7332706;19;162405;-18
2022/04/25 03:57:49;;;;;;;30.05;20.83;;;;;;;;;;7332843;19;153671;-17
2022/04/25 04:00:21;;;;;;;32.13;21.42;;;;;;;;;;7330587;19;161844;-13
2022/04/25 04:02:52;;;;;;;32.28;20.95;;;;;;;;;;7332317;19;162590;-14
2022/04/25 04:05:24;;;;;;;34.80;22.35;;;;;;;;;;7332583;19;154108;-15
2022/04/25 04:07:56;;;;;;;30.52;21.02;;;;;;;;;;7332721;19;153872;-16
2022/04/25 04:10:27;;;;;;;30.87;19.90;;;;;;;;;;7331075;19;161824;-14
2022/04/25 04:13:01;;;;;;;29.40;19.85;;;;;;;;;;7332128;19;162469;-14
2022/04/25 04:15:32;;;;;;;31.55;20.75;;;;;;;;;;7332637;19;154075;-14
2022/04/25 04:18:05;;;;;;;29.90;20.73;;;;;;;;;;7332102;19;153610;-15
2022/04/25 04:20:36;;;;;;;32.35;19.55;;;;;;;;;;7330226;19;161994;-17
2022/04/25 04:23:08;;;;;;;31.67;20.90;;;;;;;;;;7332003;19;162556;-17
2022/04/25 04:25:39;;;;;;;30.83;20.45;;;;;;;;;;7332222;19;154036;-14
2022/04/25 04:28:13;;;;;;;32.88;20.33;;;;;;;;;;7332037;19;153508;-17
2022/04/25 04:30:46;;;;;;;28.70;18.67;;;;;;;;;;7329044;19;161962;-16
2022/04/25 04:33:17;;;;;;;31.10;19.63;;;;;;;;;;7330901;19;162449;-17
2022/04/25 04:38:32;;;;;;;29.50;19.83;;;;;;;;;;7331875;19;153646;-14
2022/04/25 04:41:03;;;;;;;27.98;18.38;;;;;;;;;;7329329;19;161694;-14
2022/04/25 04:43:37;;;;;;;30.75;18.95;;;;;;;;;;7331301;19;162434;-15
2022/04/25 04:46:08;;;;;;;28.70;18.90;;;;;;;;;;7331683;19;154196;-16
2022/04/25 04:48:40;;;;;;;28.85;18.67;;;;;;;;;;7329320;19;153677;-18
2022/04/25 04:51:11;;;;;;;29.65;19.08;;;;;;;;;;7330977;19;161575;-14
2022/04/25 04:53:42;;;;;;;27.27;18.10;;;;;;;;;;7331175;19;162565;-17
2022/04/25 04:56:13;;;;;;;26.17;17.80;;;;;;;;;;7331450;19;154026;-17
2022/04/25 04:58:48;;;;;;;33.28;19.38;;;;;;;;;;7330159;19;153809;-17
2022/04/25 05:01:19;;;;;;;25.77;17.42;;;;;;;;;;7328804;19;161978;-18
2022/04/25 05:03:51;;;;;;;;;;;;;;;;;;7333538;19;162726;-16
2022/04/25 05:06:23;;;;;;;25.77;17.77;;;;;;;;;;7331242;19;154188;-14
2022/04/25 05:08:54;;;;;;;26.95;17.42;;;;;;;;;;7330940;19;153620;-15
2022/04/25 05:11:29;;;;;;;26.58;18.02;;;;;;;;;;7330162;19;161760;-14
2022/04/25 05:14:09;;;;;;;25.90;17.27;;;;;;;;;;7329035;19;162601;-17
2022/04/25 05:16:40;;;;;;;22.52;16.58;;;;;;;;;;7330657;19;154046;-17
2022/04/25 05:19:11;;;;;;;26.45;17.58;;;;;;;;;;7330041;19;153589;-18
2022/04/25 05:21:43;;;;;;;25.73;16.48;;;;;;;;;;7328216;19;162084;-15
2022/04/25 05:24:14;;;;;;;24.95;16.40;;;;;;;;;;7330078;19;162549;-18
2022/04/25 05:26:45;;;;;;;28.30;17.90;;;;;;;;;;7330056;19;154019;-16
2022/04/25 05:29:19;;;;;;;26.30;17.55;;;;;;;;;;7330339;19;153723;-14
2022/04/25 05:31:51;;;;;;;24.40;16.65;;;;;;;;;;7329741;19;161812;-14
2022/04/25 05:34:28;;;;;;;23.38;16.10;;;;;;;;;;7329715;19;162128;-17
2022/04/25 05:36:59;;;;;;;17.63;12.30;;;;;;;;;;7330236;19;154002;-15
2022/04/25 05:39:30;;;;;;;18.48;10.77;;;;;;;;;;7330224;19;153683;-16
2022/04/25 05:42:04;;;;;;;13.13;10.57;;;;;;;;;;7325315;19;162039;-15
2022/04/25 05:44:38;;;;;;;10.82;8.52;;;;;;;;;;7329027;19;162511;-14
2022/04/25 05:47:10;;;;;;;11.15;7.75;;;;;;;;;;7329585;19;154304;-16
2022/04/25 05:52:25;;;;;;;10.93;7.35;;;;;;;;;;7329461;19;161775;-16
2022/04/25 05:54:56;;;;;;;10.70;8.43;;;;;;;;;;7329190;19;162365;-17
2022/04/25 05:57:27;;;;;;;13.18;8.07;;;;;;;;;;7329387;19;154281;-15
2022/04/25 06:00:01;;;;;;;11.65;7.50;;;;;;;;;;7329141;19;153675;-14
2022/04/25 06:02:32;;;;;;;13.00;8.65;;;;;;;;;;7325592;19;162132;-16
2022/04/25 06:05:04;;;;;;;17.13;8.88;;;;;;;;;;7329014;19;162757;-16
2022/04/25 06:07:36;;;;;;;15.27;9.00;;;;;;;;;;7329224;19;154075;-15
2022/04/25 06:10:08;;;;;;;12.98;7.97;;;;;;;;;;7329065;19;153431;-18
2022/04/25 06:12:43;;;;;;;16.25;8.25;;;;;;;;;;7328671;19;161748;-16
2022/04/25 06:15:17;;;;;;;11.45;7.55;;;;;;;;;;7328716;19;162370;-16
2022/04/25 06:17:51;;;;;;;12.48;7.28;;;;;;;;;;7328908;19;154390;-16
2022/04/25 06:20:24;;;;;;;11.07;7.18;;;;;;;;;;7327468;19;153892;-14
2022/04/25 06:22:57;;;;;;;18.95;8.10;;;;;;;;;;7325668;19;161768;-17
2022/04/25 06:25:30;;;;;;;10.85;8.00;;;;;;;;;;7327994;19;162452;-18
2022/04/25 06:28:02;;;;;;;13.85;8.30;;;;;;;;;;7327385;19;154246;-17
2022/04/25 06:30:36;;;;;;;16.02;8.82;;;;;;;;;;7327941;19;153576;-15
2022/04/25 06:33:07;;;;;;;10.98;7.80;;;;;;;;;;7328064;19;161788;-14
2022/04/25 06:35:39;;;;;;;12.80;8.20;;;;;;;;;;7328164;19;162572;-15
2022/04/25 06:38:11;;;;;;;15.45;7.85;;;;;;;;;;7328135;19;154259;-15
2022/04/25 06:40:42;;;;;;;9.43;7.68;;;;;;;;;;7328176;19;153791;-14
2022/04/25 06:43:14;;;;;;;10.60;7.45;;;;;;;;;;7327525;19;161765;-14
2022/04/25 06:45:49;;;;;;;12.00;7.93;;;;;;;;;;7327632;19;162330;-15
2022/04/25 06:48:20;;;;;;;12.35;8.02;;;;;;;;;;7326749;19;154253;-16
2022/04/25 06:50:55;;;;;;;7.95;7.05;;;;;;;;;;7326603;19;153563;-18
2022/04/25 06:53:26;;;;;;;10.55;7.70;;;;;;;;;;7329989;19;162027;-13
2022/04/25 06:55:58;;;;;;;10.05;7.03;;;;;;;;;;7334298;19;162431;-16
2022/04/25 06:58:29;;;;;;;10.07;8.18;;;;;;;;;;7334575;19;154151;-14
2022/04/25 07:01:03;;;;;;;10.55;8.13;;;;;;;;;;7334266;19;154335;-17
2022/04/25 07:03:34;;;;;;;14.38;8.30;;;;;;;;;;7333854;19;162057;-14
2022/04/25 07:06:05;;;;;;;12.00;7.57;;;;;;;;;;7333847;19;162382;-16
2022/04/25 07:08:36;;;;;;;10.20;7.65;;;;;;;;;;7333194;19;154009;-17
2022/04/25 07:11:08;;;;;;;8.77;7.28;;;;;;;;;;7333024;19;153703;-13
2022/04/25 07:13:41;;;;;;;11.25;7.05;;;;;;;;;;7337102;19;162088;-17
2022/04/25 07:16:15;;;;;;;9.68;7.25;;;;;;;;;;7333771;19;162493;-16
2022/04/25 07:18:46;;;;;;;9.40;7.40;;;;;;;;;;7333968;19;154049;-17
2022/04/25 07:29:38;;;;;;;8.45;6.90;;;;;;;;;;7333835;19;154052;-15
2022/04/25 07:32:12;;;;;;;9.50;6.68;;;;;;;;;;7334059;19;153580;-17
2022/04/25 07:34:43;;;;;;;8.93;7.25;;;;;;;;;;7333244;19;161770;-16
2022/04/25 07:37:15;;;;;;;8.23;7.20;;;;;;;;;;7332901;19;163094;-14
2022/04/25 07:39:46;;;;;;;6.95;5.65;;;;;;;;;;7333506;19;154018;-15
2022/04/25 07:42:18;;;;;;;8.93;6.95;;;;;;;;;;7331484;19;153685;-13
2022/04/25 07:44:50;;;;;;;10.13;7.03;;;;;;;;;;7332990;19;161986;-17
2022/04/25 07:47:24;;;;;;;10.32;7.03;;;;;;;;;;7331663;19;162379;-14
2022/04/25 07:49:55;;;;;;;9.18;6.70;;;;;;;;;;7331791;19;154584;-16
2022/04/25 07:52:26;;;;;;;8.15;6.85;;;;;;;;;;7333136;19;153594;-14
2022/04/25 07:54:57;;;;;;;9.45;7.00;;;;;;;;;;7331454;19;162137;-15
2022/04/25 07:57:29;;;;;;;7.15;6.22;;;;;;;;;;7332557;19;162525;-14
2022/04/25 08:00:00;;;;;;;9.23;6.30;;;;;;;;;;7332876;19;154295;-15
2022/04/25 08:02:39;;;;;;;6.57;5.93;;;;;;;;;;7331843;19;153553;-15
2022/04/25 08:05:10;;;;;;;11.88;7.43;;;;;;;;;;7332193;19;161980;-16
2022/04/25 08:07:41;;;;;;;10.68;7.43;;;;;;;;;;7332239;19;162119;-17
2022/04/25 08:10:13;;;;;;;13.57;7.53;;;;;;;;;;7332519;19;154180;-17
2022/04/25 08:18:14;;;;;;;10.88;6.95;;;;;;;;;;7331945;19;162368;-14
2022/04/25 08:20:47;;;;;;;6.78;6.03;;;;;;;;;;7332420;19;154037;-15
2022/04/25 08:23:19;;;;;;;10.48;6.43;;;;;;;;;;7329876;19;153848;-18
2022/04/25 08:25:51;;;;;;;9.55;6.35;;;;;;;;;;7331749;19;161810;-15
2022/04/25 08:28:24;;;;;;;8.57;6.75;;;;;;;;;;7331750;19;162578;-14
2022/04/25 08:31:02;;;;;;;8.18;6.30;;;;;;;;;;7331872;19;154026;-14
2022/04/25 08:33:36;;;;;;;8.88;6.47;;;;;;;;;;7332100;19;153649;-16
2022/04/25 08:36:08;;;;;;;10.65;6.78;;;;;;;;;;7331652;19;161816;-17
2022/04/25 08:38:43;;;;;;;7.63;6.93;;;;;;;;;;7331684;19;162359;-13
2022/04/25 08:41:17;;;;;;;8.73;5.65;;;;;;;;;;7331836;19;154042;-13
2022/04/25 08:43:51;;;;;;;8.68;6.32;;;;;;;;;;7329696;19;153577;-16
2022/04/25 08:46:24;;;;;;;8.40;6.50;;;;;;;;;;7331296;19;161881;-16
2022/04/25 08:48:59;;;;;;;10.15;6.38;;;;;;;;;;7329259;19;162511;-15
2022/04/25 08:51:32;;;;;;;5.43;4.93;;;;;;;;;;7330339;19;153980;-18
2022/04/25 08:54:06;;;;;;;6.38;5.70;;;;;;;;;;7333834;19;153839;-18
2022/04/25 08:56:38;;;;;;;12.55;5.50;;;;;;;;;;7333781;19;161774;-17
2022/04/25 08:59:10;;;;;;;10.32;6.10;;;;;;;;;;7327452;19;162387;-16
2022/04/25 09:01:42;;;;;;;9.83;5.80;;;;;;;;;;7334979;19;154361;-15
2022/04/25 09:04:16;;;;;;;18.13;6.07;;;;;;;;;;7331861;19;153610;-15
2022/04/25 09:06:51;;;;;;;9.23;6.20;;;;;;;;;;7334395;19;161816;-13
2022/04/25 09:09:22;;;;;;;9.10;5.28;;;;;;;;;;7331758;19;162435;-15
2022/04/25 09:14:40;;;;;;;7.45;5.38;;;;;;;;;;7334096;19;132730;-14
2022/04/25 09:17:12;;;;;;;8.82;5.50;;;;;;;;;;7331099;19;161885;-14
2022/04/25 09:19:46;;;;;;;10.98;6.47;;;;;;;;;;7332340;19;162694;-17
2022/04/25 09:22:32;;;;;;;7.40;6.10;;;;;;;;;;7332350;19;154040;-22
2022/04/25 09:25:09;;;;;;;7.13;5.35;;;;;;;;;;7333835;19;155538;-16
2022/04/25 09:28:12;;;;;;;9.02;5.88;;;;;;;;;;7332525;19;162001;-16
2022/04/25 09:31:00;;;;;;;7.43;5.47;;;;;;;;;;7333012;19;162321;-16
2022/04/25 09:33:31;;;;;;;6.40;5.20;;;;;;;;;;7334291;19;153853;-14
2022/04/25 09:36:06;;;;;;;9.20;5.93;;;;;;;;;;7332519;19;153742;-14
2022/04/25 09:38:39;;;;;;;13.18;5.40;;;;;;;;;;7333508;19;161834;-16
2022/04/25 09:41:12;;;;;;;7.28;4.88;;;;;;;;;;7330538;19;162590;-13
2022/04/25 09:43:47;;;;;;;6.80;4.95;;;;;;;;;;7332456;19;154241;-19
2022/04/25 09:46:19;;;;;;;8.50;5.43;;;;;;;;;;7332396;19;153598;-16
2022/04/25 09:49:06;;;;;;;7.22;5.20;;;;;;;;;;7326923;19;161916;-17
2022/04/25 09:51:40;;;;;;;7.35;5.22;;;;;;;;;;7327845;19;162395;-18
2022/04/25 09:54:11;;;;;;;5.35;4.65;;;;;;;;;;7332455;19;153926;-17
2022/04/25 09:56:43;;;;;;;5.15;4.40;;;;;;;;;;7332962;19;153747;-15
2022/04/25 09:59:15;;;;;;;8.18;5.07;;;;;;;;;;7329873;19;162053;-15
2022/04/25 10:01:47;;;;;;;6.15;5.05;;;;;;;;;;7330784;19;163138;-15
2022/04/25 10:04:35;;;;;;;8.40;4.50;;;;;;;;;;7329447;19;154062;-17
2022/04/25 10:07:10;;;;;;;6.07;4.55;;;;;;;;;;7328084;19;153579;-17
2022/04/25 10:09:42;;;;;;;12.25;4.75;;;;;;;;;;7329322;19;162154;-14
2022/04/25 10:12:15;;;;;;;7.03;4.93;;;;;;;;;;7331365;19;162700;-16
2022/04/25 10:14:47;;;;;;;6.65;4.40;;;;;;;;;;7328270;19;154188;-16
2022/04/25 10:17:19;;;;;;;6.23;4.87;;;;;;;;;;7327220;19;153592;-17
2022/04/25 10:19:53;;;;;;;4.57;3.88;;;;;;;;;;7326188;19;161937;-14
2022/04/25 10:22:27;;;;;;;5.82;4.57;;;;;;;;;;7330139;19;162376;-14
2022/04/25 10:24:58;;;;;;;7.57;4.65;;;;;;;;;;7327266;19;154155;-14
2022/04/25 10:27:34;;;;;;;5.43;4.22;;;;;;;;;;7330670;19;153653;-18
2022/04/25 10:30:14;;;;;;;6.30;4.20;;;;;;;;;;7338014;19;161987;-16
2022/04/25 10:32:45;;;;;;;6.15;4.22;;;;;;;;;;7332983;19;162779;-18
2022/04/25 10:35:19;;;;;;;6.97;4.50;;;;;;;;;;7338259;19;154080;-17
2022/04/25 10:37:53;;;;;;;6.85;4.38;;;;;;;;;;7337320;19;153630;-16
2022/04/25 10:46:16;;;;;;;6.20;4.13;;;;;;;;;;7339128;19;154116;-18
2022/04/25 10:49:09;;;;;;;7.82;4.20;;;;;;;;;;7337125;19;153448;-16
2022/04/25 10:51:41;;;;;;;;;;;;;;;;;;7336499;19;161957;-15
2022/04/25 10:54:15;;;;;;;6.57;4.63;;;;;;;;;;7336390;19;162624;-15
2022/04/25 10:57:16;;;;;;;3.92;3.40;;;;;;;;;;7338076;19;154138;-19
2022/04/25 10:59:47;;;;;;;6.43;4.35;;;;;;;;;;7335986;19;153479;-17
2022/04/25 11:02:23;;;;;;;4.10;3.67;;;;;;;;;;7335941;19;161887;-16
2022/04/25 11:05:24;;;;;;;4.50;3.38;;;;;;;;;;7336450;19;162318;-15
2022/04/25 11:08:29;;;;;;;5.32;3.97;;;;;;;;;;7336633;19;154169;-15
2022/04/25 11:11:21;;;;;;;6.45;4.13;;;;;;;;;;7335117;19;153471;-17
2022/04/25 11:14:18;;;;;;;5.80;4.10;;;;;;;;;;7336293;19;161957;-18
2022/04/25 11:17:12;;;;;;;5.25;3.92;;;;;;;;;;7334333;19;162354;-17
2022/04/25 11:19:48;;;;;;;4.05;3.50;;;;;;;;;;7335483;19;154581;-16
2022/04/25 11:22:33;;;;;;;4.93;3.70;;;;;;;;;;7337050;19;153530;-19
2022/04/25 11:25:42;;;;;;;5.10;3.50;;;;;;;;;;7332883;19;161808;-17
2022/04/25 11:28:17;;;;;;;5.50;3.25;;;;;;;;;;7333269;19;162385;-16
2022/04/25 11:31:22;;;;;;;3.35;3.13;;;;;;;;;;7333965;19;154176;-16
2022/04/25 11:33:55;;;;;;;5.60;3.47;;;;;;;;;;7336093;19;153297;-17
2022/04/25 11:36:27;;;;;;;3.53;3.20;;;;;;;;;;7336675;19;161973;-17
2022/04/25 11:41:45;;;;;;;7.47;3.80;;;;;;;;;;7336894;19;154056;-18
2022/04/25 11:44:19;;;;;;;4.78;3.25;;;;;;;;;;7336056;19;153556;-17
2022/04/25 11:46:51;;;;;;;4.32;3.63;;;;;;;;;;7336831;19;161835;-15
2022/04/25 11:49:30;;;;;;;3.47;3.10;;;;;;;;;;7330391;19;162577;-17
2022/04/25 11:52:01;;;;;;;4.85;3.40;;;;;;;;;;7335490;19;153937;-13
2022/04/25 11:54:34;;;;;;;4.75;3.65;;;;;;;;;;7336315;19;153451;-17
2022/04/25 11:57:06;;;;;;;4.00;3.60;;;;;;;;;;7332469;19;161782;-18
2022/04/25 11:59:40;;;;;;;4.45;3.42;;;;;;;;;;7336160;19;162342;-14
2022/04/25 12:02:12;;;;;;;11.27;3.45;;;;;;;;;;7334878;19;154159;-17
2022/04/25 12:04:43;;;;;;;6.10;3.28;;;;;;;;;;7334563;19;153557;-16
2022/04/25 12:07:14;;;;;;;4.93;3.35;;;;;;;;;;7334520;19;161822;-13
2022/04/25 12:15:37;;;;;;;4.10;3.22;;;;;;;;;;7330476;19;153656;-16
2022/04/25 12:18:20;;;;;;;3.65;2.88;;;;;;;;;;7334672;19;161999;-16
2022/04/25 12:20:53;;;;;;;3.75;2.75;;;;;;;;;;7334773;19;162415;-17
2022/04/25 12:23:26;;;;;;;3.28;2.35;;;;;;;;;;7331114;19;154055;-19
2022/04/25 12:25:58;;;;;;;;;;;;;;;;;;7333295;19;153649;-17
2022/04/25 12:28:30;;;;;;;3.35;2.80;;;;;;;;;;7335309;19;162156;-15
2022/04/25 12:31:10;;;;;;;5.27;3.00;;;;;;;;;;7334751;19;162638;-14
2022/04/25 12:33:43;;;;;;;11.02;3.05;;;;;;;;;;7333650;19;154144;-17
2022/04/25 12:36:19;;;;;;;;;;;;;;;;;;7335032;19;153888;-15
2022/04/25 12:38:58;;;;;;;4.32;3.10;;;;;;;;;;7327898;19;162248;-16
2022/04/25 12:41:32;;;;;;;5.93;3.13;;;;;;;;;;7328931;19;162380;-14
2022/04/25 12:44:15;;;;;;;4.97;2.80;;;;;;;;;;7331498;19;154119;-17
2022/04/25 12:46:52;;;;;;;3.33;2.97;;;;;;;;;;7330397;19;153429;-18
2022/04/25 12:49:25;;;;;;;6.47;2.83;;;;;;;;;;7330187;19;162672;-17
2022/04/25 12:52:00;;;;;;;;;;;;;;;;;;7330769;19;162803;-17
2022/04/25 12:54:35;;;;;;;6.07;2.80;;;;;;;;;;7335287;19;154040;-14
2022/04/25 12:57:15;;;;;;;3.00;2.70;;;;;;;;;;7335235;19;153600;-15
2022/04/25 12:59:47;;;;;;;3.92;2.95;;;;;;;;;;7333364;19;161962;-17
2022/04/25 13:02:23;;;;;;;4.75;2.72;;;;;;;;;;7333748;19;162550;-17
2022/04/25 13:04:55;;;;;;;3.35;2.83;;;;;;;;;;7333444;19;154336;-13
2022/04/25 13:07:31;;;;;;;5.50;2.97;;;;;;;;;;7330169;19;153710;-16
2022/04/25 13:10:04;;;;;;;4.43;2.97;;;;;;;;;;7330998;19;162819;-18
2022/04/25 13:12:37;;;;;;;4.38;2.90;;;;;;;;;;7328702;19;162927;-15
2022/04/25 13:15:10;;;;;;;4.13;2.80;;;;;;;;;;7329377;19;154095;-15
2022/04/25 13:17:45;;;;;;;13.30;4.80;;;;;;;;;;7331132;19;153583;-16
2022/04/25 13:20:17;;;;;;;6.63;3.42;;;;;;;;;;7332795;19;162170;-18
2022/04/25 13:22:49;;;;;;;6.88;3.42;;;;;;;;;;7333988;19;162369;-16
2022/04/25 13:25:23;;;;;;;3.97;2.92;;;;;;;;;;7332079;19;154060;-17
2022/04/25 13:27:56;;;;;;;7.32;3.33;;;;;;;;;;7333739;19;153744;-15
2022/04/25 13:30:27;;;;;;;3.83;3.10;;;;;;;;;;7330813;19;161851;-16
2022/04/25 13:33:01;;;;;;;37.25;13.18;;;;;;;;;;7327479;19;162527;-16
2022/04/25 13:35:32;;;;;;;320.50;122.90;;;;;;;;;;7329730;19;154560;-16
2022/04/25 13:38:03;;;;;;;321.33;122.97;;;;;;;;;;7327884;19;153694;-16
2022/04/25 13:40:35;;;;;;;331.60;126.25;;;;;;;;;;7330949;19;161971;-15
2022/04/25 13:43:07;;;;;;;241.52;97.60;;;;;;;;;;7333970;19;162594;-18
2022/04/25 13:45:38;;;;;;;255.27;99.60;;;;;;;;;;7332292;19;154399;-17
2022/04/25 13:48:16;;;;;;;235.30;92.40;;;;;;;;;;7327851;19;153489;-16
2022/04/25 13:50:47;;;;;;;240.90;91.95;;;;;;;;;;7328958;19;162003;-16
2022/04/25 13:53:19;;;;;;;224.05;83.82;;;;;;;;;;7329114;19;162495;-15
2022/04/25 13:55:50;;;;;;;211.23;86.50;;;;;;;;;;7326860;19;154181;-18
2022/04/25 13:58:22;;;;;;;216.35;86.22;;;;;;;;;;7329303;19;153647;-15
2022/04/25 14:00:53;;;;;;;213.55;84.95;;;;;;;;;;7328638;19;162583;-16
2022/04/25 14:03:27;;;;;;;215.85;83.95;;;;;;;;;;7340878;19;162479;-18
2022/04/25 14:05:58;;;;;;;210.80;83.75;;;;;;;;;;7341871;19;154018;-16
2022/04/25 14:08:29;;;;;;;206.55;83.43;;;;;;;;;;7343489;19;153464;-14
2022/04/25 14:11:01;;;;;;;200.52;80.97;;;;;;;;;;7342780;19;161771;-14
2022/04/25 14:13:33;;;;;;;187.50;77.33;;;;;;;;;;7343018;19;162521;-17
2022/04/25 14:16:04;;;;;;;177.85;74.95;;;;;;;;;;7343448;19;153988;-15
2022/04/25 14:18:38;;;;;;;184.85;74.90;;;;;;;;;;7343275;19;153654;-14
2022/04/25 14:21:09;;;;;;;181.05;77.10;;;;;;;;;;7342544;19;162066;-14
2022/04/25 14:23:41;;;;;;;184.52;75.53;;;;;;;;;;7341347;19;162582;-17
2022/04/25 14:26:13;;;;;;;179.50;73.63;;;;;;;;;;7342676;19;154034;-16
2022/04/25 14:28:44;;;;;;;174.33;72.03;;;;;;;;;;7342879;19;154196;-17
2022/04/25 14:31:35;;;;;;;166.32;69.50;;;;;;;;;;7342383;19;161929;-13
2022/04/25 14:34:10;;;;;;;174.48;71.25;;;;;;;;;;7341941;19;162362;-15
2022/04/25 14:36:42;;;;;;;172.93;68.38;;;;;;;;;;7342507;19;153977;-16
2022/04/25 14:39:13;;;;;;;157.32;62.40;;;;;;;;;;7342375;19;153835;-15
2022/04/25 14:41:44;;;;;;;151.60;63.25;;;;;;;;;;7342001;19;162224;-16
2022/04/25 14:44:15;;;;;;;152.68;63.55;;;;;;;;;;7341728;19;162345;-16
2022/04/25 14:46:46;;;;;;;150.75;60.53;;;;;;;;;;7340343;19;154173;-17
2022/04/25 14:54:20;;;;;;;148.65;60.38;;;;;;;;;;7339873;19;153760;-16
2022/04/25 14:54:55;;;;;;;142.13;58.83;;;;;;;;;;7341623;19;162391;-19
2022/04/25 14:57:27;;;;;;;142.57;58.83;;;;;;;;;;7341983;19;154330;-16
2022/04/25 14:59:58;;;;;;;128.30;54.33;;;;;;;;;;7341379;19;153867;-28
2022/04/25 15:02:30;;;;;;;126.55;54.35;;;;;;;;;;7340931;19;161993;-21
2022/04/25 15:05:04;;;;;;;122.22;53.13;;;;;;;;;;7340898;19;162546;-14
2022/04/25 15:07:35;;;;;;;124.90;55.47;;;;;;;;;;7338992;19;154100;-18
2022/04/25 15:10:07;;;;;;;132.27;55.40;;;;;;;;;;7340113;19;153787;-15
2022/04/25 15:12:39;;;;;;;136.77;52.57;;;;;;;;;;7342757;19;161769;-14
2022/04/25 15:15:12;;;;;;;122.05;50.80;;;;;;;;;;7332306;19;163685;-17
2022/04/25 15:17:43;;;;;;;120.03;52.40;;;;;;;;;;7334018;19;154036;-15
2022/04/25 15:20:17;;;;;;;113.82;48.95;;;;;;;;;;7334086;19;153831;-17
2022/04/25 15:22:49;;;;;;;115.50;49.90;;;;;;;;;;7333409;19;161916;-14
2022/04/25 15:25:20;;;;;;;116.32;50.83;;;;;;;;;;7333120;19;162264;-17
2022/04/25 15:27:51;;;;;;;104.50;47.20;;;;;;;;;;7337107;19;154140;-15
2022/04/25 15:30:22;;;;;;;116.50;48.63;;;;;;;;;;7333427;19;153882;-15
2022/04/25 15:32:54;;;;;;;97.22;44.60;;;;;;;;;;7333141;19;161852;-17
2022/04/25 15:35:27;;;;;;;102.20;45.47;;;;;;;;;;7331961;19;162450;-18
2022/04/25 15:37:59;;;;;;;93.38;42.78;;;;;;;;;;7332171;19;154091;-16